Time;durP1;ratioP1;P1;durP2;ratioP2;P2;SDS_P1;SDS_P2;PMS_P1;PMS_P2;Temp;Humidity;BMP_temperature;BMP_pressure;BME280_temperature;BME280_humidity;BME280_pressure;Samples;Min_cycle;Max_cycle;Signal;HPM_P1;HPM_P2
2022/02/08 00:00:42;;;;;;;19.98;3.90;;;;;;;3.19;100.00;101534.81;4996061;28;20487;-79
2022/02/08 00:03:09;;;;;;;37.97;8.40;;;;;;;3.21;100.00;101530.31;4996425;28;20054;-78
2022/02/08 00:05:36;;;;;;;19.90;5.32;;;;;;;3.19;100.00;101515.50;5012526;28;20045;-79
2022/02/08 00:08:02;;;;;;;29.05;4.00;;;;;;;3.22;100.00;101523.22;4995582;28;20037;-79
2022/02/08 00:10:29;;;;;;;21.25;5.72;;;;;;;3.06;100.00;101499.56;4996649;28;20452;-78
2022/02/08 00:12:54;;;;;;;;;;;;;;;3.21;100.00;101509.19;5012689;28;20062;-79
2022/02/08 00:15:20;;;;;;;28.60;5.45;;;;;;;3.22;100.00;101499.47;4997134;28;19924;-79
2022/02/08 00:17:45;;;;;;;20.77;4.28;;;;;;;3.19;100.00;101497.88;4996388;28;20028;-79
2022/02/08 00:20:12;;;;;;;16.85;3.60;;;;;;;3.17;100.00;101497.13;5012367;28;20128;-78
2022/02/08 00:22:38;;;;;;;31.00;4.95;;;;;;;3.26;100.00;101495.69;5012809;28;20494;-79
2022/02/08 00:25:05;;;;;;;15.30;4.22;;;;;;;3.28;100.00;101493.81;4994676;28;20388;-79
2022/02/08 00:27:31;;;;;;;14.93;4.82;;;;;;;3.25;100.00;101473.72;5010474;28;20029;-79
2022/02/08 00:29:56;;;;;;;21.90;4.75;;;;;;;3.28;100.00;101478.81;5015381;28;20713;-78
2022/02/08 00:32:22;;;;;;;18.20;3.50;;;;;;;3.23;100.00;101459.81;5011841;28;20034;-78
2022/02/08 00:34:48;;;;;;;11.88;2.40;;;;;;;3.21;100.00;101450.25;4997142;28;20132;-80
2022/02/08 00:37:14;;;;;;;;;;;;;;;3.17;100.00;101453.09;4996136;28;20037;-79
2022/02/08 00:39:39;;;;;;;11.98;2.63;;;;;;;3.05;100.00;101435.41;5012175;28;19913;-79
2022/02/08 00:42:08;;;;;;;24.52;3.40;;;;;;;3.06;100.00;101437.09;4995503;28;20034;-79
2022/02/08 00:45:07;;;;;;;20.85;2.58;;;;;;;3.12;100.00;101443.81;4994857;28;20076;-79
2022/02/08 00:47:38;;;;;;;24.15;3.60;;;;;;;2.98;100.00;101441.19;5011059;28;20053;-80
2022/02/08 00:50:07;;;;;;;15.00;2.88;;;;;;;3.02;100.00;101435.63;5000073;28;20034;-79
2022/02/08 00:52:34;;;;;;;17.17;4.50;;;;;;;2.95;100.00;101429.88;5010441;28;20018;-79
2022/02/08 00:55:00;;;;;;;18.92;2.38;;;;;;;3.00;100.00;101431.34;5010357;28;20052;-79
2022/02/08 00:57:26;;;;;;;22.88;5.65;;;;;;;2.91;100.00;101409.91;5028365;28;20034;-78
2022/02/08 00:59:52;;;;;;;22.00;2.85;;;;;;;2.99;100.00;101419.13;5002587;28;20033;-80
2022/02/08 01:02:18;;;;;;;12.18;3.38;;;;;;;2.96;100.00;101417.53;5011988;28;20102;-79
2022/02/08 01:04:52;;;;;;;11.57;2.30;;;;;;;2.96;100.00;101421.00;5001812;28;20061;-80
2022/02/08 01:07:17;;;;;;;13.02;2.65;;;;;;;2.98;100.00;101414.81;5012142;28;20048;-79
2022/02/08 01:12:09;;;;;;;17.42;2.60;;;;;;;3.04;100.00;101414.41;4991408;28;20069;-79
2022/02/08 01:14:39;;;;;;;23.30;3.83;;;;;;;2.94;100.00;101385.13;4990500;28;20053;-79
2022/02/08 01:17:05;;;;;;;20.20;4.05;;;;;;;2.96;100.00;101375.31;5008875;28;20045;-79
2022/02/08 01:19:31;;;;;;;18.13;2.58;;;;;;;3.09;100.00;101399.13;4994496;28;20022;-79
2022/02/08 01:21:57;;;;;;;12.77;2.60;;;;;;;3.14;100.00;101397.06;4994990;28;20033;-78
2022/02/08 01:24:22;;;;;;;16.53;3.90;;;;;;;3.07;100.00;101369.38;4995146;28;20037;-79
2022/02/08 01:26:55;;;;;;;10.57;2.93;;;;;;;3.04;100.00;101348.44;4996015;28;20395;-79
2022/02/08 01:29:35;;;;;;;13.68;4.25;;;;;;;3.15;100.00;101359.16;5011158;28;20067;-79
2022/02/08 01:32:15;;;;;;;13.82;2.30;;;;;;;3.14;100.00;101346.91;4995278;28;20042;-78
2022/02/08 01:34:59;;;;;;;16.42;3.17;;;;;;;3.15;100.00;101346.81;4994505;28;20038;-79
2022/02/08 01:40:05;;;;;;;18.77;3.42;;;;;;;3.24;100.00;101345.38;5014078;28;20103;-79
2022/02/08 01:42:47;;;;;;;9.88;2.47;;;;;;;3.28;100.00;101344.22;4998345;28;20034;-79
2022/02/08 01:48:01;;;;;;;14.55;3.45;;;;;;;3.21;100.00;101350.84;5014858;28;20571;-79
2022/02/08 01:50:30;;;;;;;11.95;2.83;;;;;;;3.24;100.00;101340.09;4997062;28;20038;-80
2022/02/08 01:52:55;;;;;;;17.38;3.67;;;;;;;3.25;100.00;101325.94;4997922;28;20022;-78
2022/02/08 01:55:26;;;;;;;13.98;3.17;;;;;;;3.24;100.00;101342.72;5006543;28;20040;-79
2022/02/08 01:57:52;;;;;;;14.23;4.95;;;;;;;3.15;100.00;101325.69;4982737;28;20116;-79
2022/02/08 02:00:19;;;;;;;10.38;3.10;;;;;;;3.18;100.00;101345.75;4999209;28;20022;-79
2022/02/08 02:02:47;;;;;;;16.40;3.88;;;;;;;3.20;100.00;101349.16;5014708;28;20030;-79
2022/02/08 02:05:19;;;;;;;12.95;3.50;;;;;;;3.13;100.00;101347.84;5013547;28;20113;-79
2022/02/08 02:07:49;;;;;;;25.05;4.82;;;;;;;3.21;100.00;101358.78;4998831;28;20096;-79
2022/02/08 02:10:19;;;;;;;17.95;3.92;;;;;;;3.25;100.00;101365.50;4998726;28;20046;-79
2022/02/08 02:12:58;;;;;;;9.18;3.22;;;;;;;3.24;100.00;101355.91;5014130;28;20593;-79
2022/02/08 02:15:28;;;;;;;17.55;4.35;;;;;;;3.24;100.00;101355.91;4998122;28;20069;-78
2022/02/08 02:17:54;;;;;;;15.07;3.80;;;;;;;3.18;100.00;101366.88;5014392;28;20068;-79
2022/02/08 02:20:22;;;;;;;17.33;4.38;;;;;;;3.12;100.00;101356.72;4998272;28;20076;-78
2022/02/08 02:22:48;;;;;;;20.60;5.00;;;;;;;3.14;100.00;101368.88;4998117;28;20037;-79
2022/02/08 02:25:24;;;;;;;12.97;4.47;;;;;;;3.15;100.00;101369.72;4997837;28;20055;-79
2022/02/08 02:27:54;;;;;;;18.10;5.80;;;;;;;3.20;100.00;101380.81;5014053;28;20309;-79
2022/02/08 02:30:20;;;;;;;18.48;5.70;;;;;;;3.15;100.00;101370.56;4998044;28;20680;-79
2022/02/08 02:32:45;;;;;;;19.92;4.65;;;;;;;3.09;100.00;101367.47;4997984;28;20021;-78
2022/02/08 02:35:29;;;;;;;19.48;4.82;;;;;;;3.16;100.00;101381.94;4998032;28;20037;-78
2022/02/08 02:37:59;;;;;;;13.82;3.60;;;;;;;3.24;100.00;101392.88;5010346;28;20045;-77
2022/02/08 02:40:30;;;;;;;15.98;4.97;;;;;;;3.24;100.00;101384.13;4996968;28;20076;-78
2022/02/08 02:42:57;;;;;;;18.42;5.57;;;;;;;3.22;100.00;101375.44;4997652;28;20557;-77
2022/02/08 02:45:23;;;;;;;10.93;4.38;;;;;;;3.24;100.00;101400.78;4988829;28;20416;-79
2022/02/08 02:47:51;;;;;;;;;;;;;;;3.27;100.00;101397.09;5013635;28;20132;-77
2022/02/08 02:50:17;;;;;;;16.05;6.22;;;;;;;3.21;100.00;101377.25;4998092;28;20298;-78
2022/02/08 02:52:44;;;;;;;10.90;5.32;;;;;;;3.28;100.00;101389.09;5013487;28;20025;-78
2022/02/08 02:55:12;;;;;;;13.70;5.13;;;;;;;3.23;100.00;101387.69;4980340;28;20034;-79
2022/02/08 02:57:38;;;;;;;12.55;5.63;;;;;;;3.24;100.00;101392.88;4997670;28;20042;-79
2022/02/08 03:00:11;;;;;;;14.02;5.97;;;;;;;3.28;100.00;101391.72;4979863;28;20083;-77
2022/02/08 03:02:45;;;;;;;22.35;7.25;;;;;;;3.29;100.00;101390.78;4996822;28;20384;-78
2022/02/08 03:05:24;;;;;;;18.20;6.47;;;;;;;3.29;100.00;101385.50;5027614;28;20044;-77
2022/02/08 03:18:48;;;;;;;17.48;7.68;;;;;;;3.37;100.00;101382.34;5010429;28;20584;-79
2022/02/08 03:21:15;;;;;;;19.48;8.85;;;;;;;3.35;100.00;101389.53;4978273;28;20109;-79
2022/02/08 03:23:40;;;;;;;22.48;8.50;;;;;;;3.30;100.00;101381.91;4994290;28;20036;-79
2022/02/08 03:26:08;;;;;;;27.88;11.70;;;;;;;3.40;100.00;101399.81;5009588;28;20026;-79
2022/02/08 03:28:39;;;;;;;30.17;11.32;;;;;;;3.42;100.00;101389.97;4995390;28;20447;-80
2022/02/08 03:31:08;;;;;;;22.40;10.45;;;;;;;3.34;100.00;101391.31;5000544;28;20109;-80
2022/02/08 03:33:36;;;;;;;33.92;11.80;;;;;;;3.38;100.00;101384.91;4997634;28;20463;-80
2022/02/08 03:36:06;;;;;;;46.40;14.45;;;;;;;3.37;100.00;101385.84;5011434;28;20419;-79
2022/02/08 03:38:36;;;;;;;35.67;13.48;;;;;;;3.43;100.00;101376.69;5009859;28;20034;-80
2022/02/08 03:41:07;;;;;;;30.40;13.27;;;;;;;3.44;100.00;101375.75;4995887;28;20068;-80
2022/02/08 03:43:36;;;;;;;35.65;14.23;;;;;;;3.55;100.00;101381.13;4980094;28;20041;-80
2022/02/08 03:46:09;;;;;;;40.75;13.32;;;;;;;3.55;100.00;101364.47;4996003;28;20026;-79
2022/02/08 03:48:37;;;;;;;35.65;13.90;;;;;;;3.51;100.00;101369.13;4981453;28;20033;-80
2022/02/08 03:51:11;;;;;;;36.03;14.05;;;;;;;3.54;100.00;101378.63;4994954;28;20116;-80
2022/02/08 03:53:45;;;;;;;51.17;16.70;;;;;;;3.55;100.00;101380.31;4979974;28;20030;-79
2022/02/08 03:56:13;;;;;;;45.47;17.92;;;;;;;3.55;100.00;101362.66;4995264;28;20119;-79
2022/02/08 03:58:39;;;;;;;44.80;15.52;;;;;;;3.54;100.00;101355.69;5011830;28;20021;-80
2022/02/08 04:01:42;;;;;;;44.92;16.55;;;;;;;3.55;100.00;101353.91;4995499;28;20033;-79
2022/02/08 04:07:12;;;;;;;39.15;15.60;;;;;;;3.62;100.00;101349.06;4932861;29;20085;-80
2022/02/08 04:09:38;;;;;;;40.92;16.80;;;;;;;3.69;100.00;101350.34;4936747;28;20043;-79
2022/02/08 04:12:10;;;;;;;45.67;17.92;;;;;;;3.71;100.00;101343.16;4966324;28;20099;-79
2022/02/08 04:14:47;;;;;;;44.33;16.58;;;;;;;3.77;100.00;101342.75;4993683;28;20496;-79
2022/02/08 04:31:22;;;;;;;41.67;17.35;;;;;;;3.73;100.00;101330.69;5010959;28;20083;-78
2022/02/08 04:37:05;;;;;;;49.45;19.02;;;;;;;3.95;100.00;101312.41;5010238;28;20022;-81
2022/02/08 04:41:43;;;;;;;52.92;19.92;;;;;;;4.07;100.00;101313.34;5009849;28;20698;-79
2022/02/08 04:44:29;;;;;;;43.88;18.20;;;;;;;4.14;100.00;101319.91;5007543;28;20056;-79
2022/02/08 04:47:06;;;;;;;46.40;19.15;;;;;;;4.14;100.00;101309.34;4991516;28;20086;-79
2022/02/08 04:49:31;;;;;;;56.45;19.02;;;;;;;4.19;100.00;101301.09;4991399;28;20042;-80
2022/02/08 04:52:02;;;;;;;42.03;18.43;;;;;;;4.18;100.00;101309.97;4991113;28;20053;-80
2022/02/08 04:57:28;;;;;;;42.28;18.95;;;;;;;4.31;100.00;101310.81;5009337;28;20038;-81
2022/02/08 05:00:14;;;;;;;52.15;18.90;;;;;;;4.34;100.00;101304.47;5005792;28;20381;-79
2022/02/08 05:42:48;;;;;;;54.38;21.08;;;;;;;4.83;100.00;101264.75;5014352;28;20143;-81
2022/02/08 05:47:47;;;;;;;50.70;21.67;;;;;;;4.91;100.00;101279.22;5014809;28;20043;-81
2022/02/08 05:55:26;;;;;;;55.53;20.48;;;;;;;4.95;100.00;101297.41;5014236;28;20053;-81
2022/02/08 05:57:52;;;;;;;45.58;20.70;;;;;;;5.03;100.00;101292.41;5013552;28;20053;-81
2022/02/08 06:00:19;;;;;;;56.38;21.25;;;;;;;4.95;100.00;101272.75;4997106;28;20082;-81
2022/02/08 06:03:02;;;;;;;51.30;21.85;;;;;;;5.01;100.00;101296.97;4996434;28;20026;-82
2022/02/08 06:05:34;;;;;;;61.83;23.50;;;;;;;5.10;100.00;101295.41;4997196;28;20551;-80
2022/02/08 06:07:59;;;;;;;55.55;22.60;;;;;;;5.10;100.00;101278.69;5014130;28;20084;-80
2022/02/08 06:10:26;;;;;;;45.07;20.37;;;;;;;5.12;100.00;101300.59;4997951;28;20032;-82
2022/02/08 06:12:54;;;;;;;53.00;19.38;;;;;;;5.13;100.00;101263.44;4997346;28;20042;-80
2022/02/08 06:15:27;;;;;;;50.55;20.33;;;;;;;5.08;100.00;101265.59;4980991;28;20076;-79
2022/02/08 06:17:56;;;;;;;55.05;22.67;;;;;;;5.22;100.00;101285.72;5013933;28;20117;-82
2022/02/08 06:20:22;;;;;;;56.80;20.90;;;;;;;5.22;100.00;101273.34;5013590;28;20129;-82
2022/02/08 06:22:48;;;;;;;47.05;21.45;;;;;;;5.29;100.00;101261.34;4982450;28;20400;-80
2022/02/08 06:25:16;;;;;;;59.95;22.25;;;;;;;5.29;100.00;101269.28;5003534;28;20036;-81
2022/02/08 06:27:43;;;;;;;40.55;20.55;;;;;;;5.33;100.00;101264.56;5003787;28;20033;-80
2022/02/08 06:30:09;;;;;;;65.65;22.45;;;;;;;5.31;100.00;101239.19;5001602;28;20036;-80
2022/02/08 06:32:35;;;;;;;56.28;21.27;;;;;;;5.39;100.00;101255.34;4998663;28;20041;-81
2022/02/08 06:35:06;;;;;;;;;;;;;;;5.39;100.00;101271.22;4996567;28;20057;-81
2022/02/08 06:37:34;;;;;;;38.13;17.58;;;;;;;5.38;100.00;101264.22;5012765;28;19988;-81
2022/02/08 06:40:00;;;;;;;44.80;20.33;;;;;;;5.33;100.00;101261.94;4996311;28;20083;-80
2022/02/08 06:42:26;;;;;;;45.55;19.42;;;;;;;5.34;100.00;101276.88;5012283;28;20475;-81
2022/02/08 06:44:52;;;;;;;49.08;20.23;;;;;;;5.32;100.00;101270.00;5012173;28;20096;-81
2022/02/08 06:47:17;;;;;;;48.87;20.37;;;;;;;5.34;100.00;101268.94;4995766;28;20030;-81
2022/02/08 06:49:43;;;;;;;48.47;18.83;;;;;;;5.42;100.00;101285.06;4979656;28;20500;-80
2022/02/08 06:52:08;;;;;;;46.53;19.67;;;;;;;5.39;100.00;101266.78;5028845;28;20053;-82
2022/02/08 06:54:33;;;;;;;53.40;21.88;;;;;;;5.40;100.00;101264.97;4995941;28;20033;-80
2022/02/08 06:57:00;;;;;;;56.03;21.83;;;;;;;5.43;100.00;101267.38;5012636;28;20193;-81
2022/02/08 06:59:25;;;;;;;43.97;19.58;;;;;;;5.42;100.00;101257.75;5012271;28;20117;-79
2022/02/08 07:01:51;;;;;;;39.10;17.77;;;;;;;5.38;100.00;101259.78;5012031;28;20127;-79
2022/02/08 07:04:16;;;;;;;45.70;18.37;;;;;;;5.43;100.00;101257.66;4995568;28;20029;-80
2022/02/08 07:06:46;;;;;;;41.97;17.27;;;;;;;5.39;100.00;101252.69;5028521;28;20033;-80
2022/02/08 07:09:13;;;;;;;42.78;17.15;;;;;;;5.47;100.00;101258.25;5012257;28;20042;-80
2022/02/08 07:11:39;;;;;;;;;;;;;;;5.55;100.00;101270.88;5012965;28;20017;-80
2022/02/08 07:14:06;;;;;;;46.72;17.30;;;;;;;5.57;100.00;101274.25;5012233;28;19917;-80
2022/02/08 07:16:32;;;;;;;40.03;17.52;;;;;;;5.59;100.00;101273.19;5012108;28;20030;-81
2022/02/08 07:18:58;;;;;;;35.78;15.35;;;;;;;5.57;100.00;101272.50;4995860;28;20041;-80
2022/02/08 07:21:23;;;;;;;39.03;16.98;;;;;;;5.60;100.00;101258.16;5011687;28;20933;-79
2022/02/08 07:23:48;;;;;;;30.27;15.20;;;;;;;5.62;100.00;101277.41;5011016;28;20487;-79
2022/02/08 07:26:14;;;;;;;31.63;14.30;;;;;;;5.62;100.00;101272.09;4994029;28;20030;-78
2022/02/08 07:28:42;;;;;;;37.47;15.50;;;;;;;5.60;100.00;101274.06;4993727;28;20038;-78
2022/02/08 07:31:16;;;;;;;40.58;16.60;;;;;;;5.65;100.00;101278.03;4977475;28;20051;-79
2022/02/08 07:33:51;;;;;;;31.38;14.05;;;;;;;5.67;100.00;101288.50;5026351;28;20135;-79
2022/02/08 07:36:27;;;;;;;31.17;15.27;;;;;;;5.68;100.00;101295.50;4993602;28;20037;-79
2022/02/08 07:38:53;;;;;;;25.77;13.68;;;;;;;5.68;100.00;101295.50;4977322;28;20034;-78
2022/02/08 07:44:12;;;;;;;24.95;14.05;;;;;;;5.68;100.00;101282.25;4999990;28;20547;-78
2022/02/08 07:46:55;;;;;;;29.92;14.10;;;;;;;5.69;100.00;101279.50;4985717;28;20419;-78
2022/02/08 07:49:21;;;;;;;30.13;14.80;;;;;;;5.72;100.00;101292.50;4996215;28;20034;-79
2022/02/08 07:51:46;;;;;;;26.87;13.23;;;;;;;5.75;100.00;101280.81;4992811;28;20281;-79
2022/02/08 07:54:11;;;;;;;23.47;12.03;;;;;;;5.76;100.00;101284.28;5008746;28;20038;-78
2022/02/08 07:56:37;;;;;;;23.93;11.93;;;;;;;5.76;100.00;101277.22;4992962;28;20076;-78
2022/02/08 07:59:03;;;;;;;30.60;11.43;;;;;;;5.79;100.00;101284.06;5006197;28;20038;-78
2022/02/08 08:01:28;;;;;;;26.73;11.50;;;;;;;5.85;100.00;101287.09;4984358;28;20895;-78
2022/02/08 08:03:54;;;;;;;25.40;11.32;;;;;;;5.77;100.00;101273.59;5009577;28;20048;-78
2022/02/08 08:06:20;;;;;;;34.77;12.00;;;;;;;5.81;100.00;101276.84;5008309;28;20026;-79
2022/02/08 08:08:47;;;;;;;27.80;11.50;;;;;;;5.87;100.00;101284.31;4974049;28;20034;-77
2022/02/08 08:11:16;;;;;;;20.63;9.45;;;;;;;5.87;100.00;101277.19;5007565;28;20475;-77
2022/02/08 08:14:00;;;;;;;19.70;9.98;;;;;;;5.86;100.00;101285.28;4991359;28;20037;-77
2022/02/08 08:21:27;;;;;;;;;;;;;;;5.89;100.00;101296.47;4991655;28;20022;-77
2022/02/08 08:23:53;;;;;;;20.75;7.97;;;;;;;5.90;100.00;101298.19;4991157;28;19919;-78
2022/02/08 08:26:20;;;;;;;18.25;8.65;;;;;;;5.93;100.00;101291.81;5007070;28;20030;-78
2022/02/08 08:28:45;;;;;;;12.43;7.15;;;;;;;5.88;100.00;101294.81;4991031;28;20407;-78
2022/02/08 08:31:11;;;;;;;17.98;7.78;;;;;;;5.96;100.00;101288.09;5007301;28;20021;-77
2022/02/08 08:33:37;;;;;;;17.10;8.80;;;;;;;5.98;100.00;101305.56;5007132;28;20029;-78
2022/02/08 08:36:03;;;;;;;11.67;6.40;;;;;;;6.02;100.00;101300.88;4990809;28;20035;-77
2022/02/08 08:38:31;;;;;;;12.30;6.13;;;;;;;6.03;100.00;101305.22;5007894;28;20101;-77
2022/02/08 08:51:34;;;;;;;9.00;4.95;;;;;;;6.18;100.00;101281.94;4990404;28;20048;-77
2022/02/08 08:54:00;;;;;;;15.77;4.60;;;;;;;6.24;100.00;101295.56;4990669;28;20112;-78
2022/02/08 08:56:25;;;;;;;9.73;4.43;;;;;;;6.27;100.00;101295.31;4991355;28;20029;-78
2022/02/08 08:58:50;;;;;;;12.20;4.63;;;;;;;6.28;100.00;101291.72;4974580;28;20381;-77
2022/02/08 09:01:16;;;;;;;16.83;4.87;;;;;;;6.29;100.00;101304.00;4991478;28;20026;-78
2022/02/08 09:03:42;;;;;;;15.37;4.30;;;;;;;6.36;100.00;101304.38;4991462;28;20033;-78
2022/02/08 09:06:08;;;;;;;11.50;5.05;;;;;;;6.44;100.00;101322.31;4974719;28;20026;-78
2022/02/08 09:08:37;;;;;;;16.70;6.78;;;;;;;6.39;100.00;101304.16;4990721;28;20810;-78
2022/02/08 09:11:14;;;;;;;16.13;5.03;;;;;;;6.41;100.00;101315.44;4990987;28;20030;-77
2022/02/08 09:13:57;;;;;;;17.70;5.07;;;;;;;6.39;100.00;101313.88;4974610;28;20174;-78
2022/02/08 09:21:57;;;;;;;24.80;4.57;;;;;;;6.45;100.00;101295.69;5008877;28;20034;-77
2022/02/08 09:29:53;;;;;;;14.70;4.82;;;;;;;6.33;100.00;101289.53;4947881;29;20094;-78
2022/02/08 09:32:39;;;;;;;11.50;3.90;;;;;;;6.44;100.00;101307.28;4964872;28;20058;-77
2022/02/08 09:35:07;;;;;;;22.05;5.28;;;;;;;6.42;100.00;101311.00;4990546;28;20502;-77
2022/02/08 09:37:33;;;;;;;12.30;4.72;;;;;;;6.38;100.00;101306.91;5007875;28;20037;-77
2022/02/08 09:40:00;;;;;;;21.27;5.80;;;;;;;6.44;100.00;101307.28;4991929;28;20065;-77
2022/02/08 09:42:26;;;;;;;18.30;4.03;;;;;;;6.37;100.00;101310.50;4975394;28;20053;-76
2022/02/08 09:44:53;;;;;;;15.43;4.50;;;;;;;6.38;100.00;101312.22;4991351;28;20607;-76
2022/02/08 09:47:28;;;;;;;17.73;5.43;;;;;;;6.39;100.00;101319.19;4990184;28;20514;-77
2022/02/08 09:49:55;;;;;;;15.68;5.15;;;;;;;6.38;100.00;101328.97;4991164;28;20045;-78
2022/02/08 09:52:22;;;;;;;16.88;4.40;;;;;;;6.43;100.00;101336.56;4991047;28;20112;-76
2022/02/08 09:54:48;;;;;;;24.83;5.20;;;;;;;6.43;100.00;101339.22;4990439;28;20034;-77
2022/02/08 09:57:14;;;;;;;17.80;3.92;;;;;;;6.36;100.00;101322.09;4991093;28;20029;-78
2022/02/08 09:59:41;;;;;;;15.75;4.85;;;;;;;6.40;100.00;101336.81;4993562;28;20049;-78
2022/02/08 10:02:07;;;;;;;15.90;5.20;;;;;;;6.44;100.00;101351.50;5010911;28;20026;-77
2022/02/08 10:04:32;;;;;;;19.80;4.55;;;;;;;6.42;100.00;101348.16;5010668;28;20073;-76
2022/02/08 10:07:13;;;;;;;15.27;4.20;;;;;;;6.38;100.00;101352.00;5009871;28;20038;-77
2022/02/08 10:09:39;;;;;;;23.23;5.18;;;;;;;6.37;100.00;101350.28;5011302;28;20037;-76
2022/02/08 10:12:05;;;;;;;22.02;4.97;;;;;;;6.44;100.00;101364.75;5009628;28;20555;-77
2022/02/08 10:23:09;;;;;;;25.80;6.78;;;;;;;6.49;100.00;101374.06;5011044;28;20049;-77
2022/02/08 10:25:59;;;;;;;28.88;6.43;;;;;;;6.52;100.00;101389.72;4993667;28;20033;-78
2022/02/08 10:28:32;;;;;;;31.45;6.22;;;;;;;6.49;100.00;101383.84;4977882;28;20026;-78
2022/02/08 10:31:19;;;;;;;31.58;7.95;;;;;;;6.52;100.00;101403.00;4994086;28;20041;-79
2022/02/08 10:39:18;;;;;;;31.80;7.00;;;;;;;6.53;100.00;101407.34;5010962;28;20069;-78
2022/02/08 10:41:47;;;;;;;17.85;6.13;;;;;;;6.55;100.00;101405.41;4993931;28;20037;-77
2022/02/08 10:44:12;;;;;;;25.10;6.15;;;;;;;6.60;100.00;101414.81;4976965;28;20064;-78
2022/02/08 10:46:38;;;;;;;24.93;6.27;;;;;;;6.58;100.00;101414.94;5011195;28;20056;-78
2022/02/08 10:49:05;;;;;;;18.37;6.40;;;;;;;6.51;100.00;101409.28;4977476;28;20030;-78
2022/02/08 10:51:36;;;;;;;26.17;5.30;;;;;;;6.41;100.00;101389.72;4993361;28;20069;-78
2022/02/08 10:54:09;;;;;;;22.27;4.65;;;;;;;6.52;100.00;101408.28;5010028;28;20073;-77
2022/02/08 10:56:37;;;;;;;20.92;3.83;;;;;;;6.53;100.00;101419.75;4993426;28;20061;-78
2022/02/08 10:59:42;;;;;;;19.55;4.97;;;;;;;6.44;100.00;101405.41;5010036;28;20018;-78
2022/02/08 11:02:22;;;;;;;13.05;4.70;;;;;;;6.53;100.00;101406.47;5007663;28;20145;-78
2022/02/08 11:04:53;;;;;;;13.35;3.65;;;;;;;6.55;100.00;101407.22;4993029;28;20468;-77
2022/02/08 11:15:39;;;;;;;14.00;3.75;;;;;;;6.59;100.00;101413.97;4993536;28;20050;-77
2022/02/08 11:20:32;;;;;;;19.15;4.85;;;;;;;6.70;100.00;101419.28;4994394;28;20026;-79
2022/02/08 11:23:04;;;;;;;;;;;;;;;6.78;100.00;101410.72;4993163;28;20042;-79
2022/02/08 11:25:39;;;;;;;19.75;4.18;;;;;;;6.67;100.00;101398.31;4992594;28;19913;-78
2022/02/08 11:28:18;;;;;;;17.90;5.18;;;;;;;6.69;100.00;101406.97;5008530;28;20034;-78
2022/02/08 11:30:59;;;;;;;18.98;5.13;;;;;;;6.69;100.00;101412.28;4994649;28;20038;-77
2022/02/08 11:33:48;;;;;;;17.65;4.68;;;;;;;6.72;100.00;101412.06;4978696;28;20030;-79
2022/02/08 11:50:44;;;;;;;18.58;5.40;;;;;;;6.81;100.00;101425.53;4992391;28;20034;-79
2022/02/08 12:01:23;;;;;;;19.83;5.38;;;;;;;6.82;100.00;101404.19;4973158;28;20152;-79
2022/02/08 12:04:13;;;;;;;26.77;6.57;;;;;;;6.80;100.00;101400.81;4979063;28;20038;-79
2022/02/08 12:09:25;;;;;;;26.50;7.13;;;;;;;6.82;100.00;101406.84;5010045;28;20038;-79
2022/02/08 12:33:26;;;;;;;24.33;5.13;;;;;;;7.03;100.00;101424.69;4972413;28;20038;-78
2022/02/08 12:50:31;;;;;;;34.03;7.63;;;;;;;6.88;100.00;101429.41;4991176;28;20038;-79
2022/02/08 12:58:54;;;;;;;28.27;6.60;;;;;;;6.99;100.00;101421.44;4991601;28;20038;-78
2022/02/08 13:01:22;;;;;;;27.77;5.90;;;;;;;7.03;100.00;101425.53;4998906;28;20042;-79
2022/02/08 13:24:44;;;;;;;30.92;6.45;;;;;;;7.00;100.00;101431.09;4995463;28;20454;-78
2022/02/08 14:14:28;;;;;;;25.92;7.15;;;;;;;6.84;100.00;101462.47;4994968;28;20042;-77
2022/02/08 14:25:19;;;;;;;34.60;7.53;;;;;;;6.87;100.00;101460.41;4995920;28;20364;-78
2022/02/08 14:30:40;;;;;;;32.95;6.30;;;;;;;6.83;100.00;101458.97;4995355;28;20064;-76
2022/02/08 15:05:43;;;;;;;37.13;6.50;;;;;;;6.84;100.00;101451.88;4997457;28;20049;-79
2022/02/08 15:10:43;;;;;;;33.45;8.13;;;;;;;6.78;100.00;101444.38;4997047;28;20026;-77
2022/02/08 15:13:11;;;;;;;40.03;5.65;;;;;;;6.83;100.00;101456.31;5013284;28;20046;-79
2022/02/08 15:16:37;;;;;;;38.97;6.50;;;;;;;6.83;100.00;101455.47;5014628;28;20646;-80
2022/02/08 15:18:32;;;;;;;32.00;6.05;;;;;;;6.88;100.00;101450.63;4998398;28;20045;-79
2022/02/08 15:21:00;;;;;;;33.72;6.50;;;;;;;6.83;100.00;101448.34;5014255;28;20037;-77
2022/02/08 15:23:28;;;;;;;32.47;7.00;;;;;;;6.82;100.00;101451.13;4998381;28;20030;-78
2022/02/08 15:25:56;;;;;;;30.60;7.45;;;;;;;6.79;100.00;101427.47;4981351;28;20892;-77
2022/02/08 15:28:24;;;;;;;35.65;8.70;;;;;;;6.82;100.00;101437.88;5014574;28;20033;-80
2022/02/08 15:30:52;;;;;;;24.58;5.20;;;;;;;6.75;100.00;101442.81;5014832;28;20030;-78
2022/02/08 15:33:17;;;;;;;40.33;7.13;;;;;;;6.73;100.00;101445.56;4982974;28;20046;-80
2022/02/08 15:35:43;;;;;;;40.10;7.10;;;;;;;6.65;100.00;101447.13;4982816;28;20038;-79
2022/02/08 15:38:08;;;;;;;47.37;8.93;;;;;;;6.65;100.00;101453.31;4999543;28;20060;-76
2022/02/08 15:40:34;;;;;;;36.70;5.77;;;;;;;6.65;100.00;101440.03;4999900;28;20022;-77
2022/02/08 15:43:00;;;;;;;42.20;6.82;;;;;;;6.63;100.00;101444.63;5016980;28;20045;-80
2022/02/08 15:45:34;;;;;;;31.13;5.68;;;;;;;6.67;100.00;101447.84;4981966;28;20030;-80
2022/02/08 15:48:00;;;;;;;32.45;5.60;;;;;;;6.60;100.00;101449.31;4990861;28;20034;-80
2022/02/08 15:53:13;;;;;;;26.27;4.90;;;;;;;6.67;100.00;101462.00;4993392;28;20030;-77
2022/02/08 15:58:24;;;;;;;39.95;6.13;;;;;;;6.69;100.00;101460.03;4990296;28;20034;-80
2022/02/08 16:08:49;;;;;;;34.08;6.28;;;;;;;6.62;100.00;101463.28;4993018;28;20049;-77
2022/02/08 16:16:32;;;;;;;33.88;5.50;;;;;;;6.57;100.00;101476.06;4973442;28;20754;-78
2022/02/08 16:19:07;;;;;;;42.97;8.45;;;;;;;6.38;100.00;101458.94;4957031;28;20328;-79
2022/02/08 16:24:32;;;;;;;33.83;6.70;;;;;;;6.50;100.00;101481.00;4990207;28;20499;-78
2022/02/08 16:30:31;;;;;;;48.53;7.20;;;;;;;6.39;100.00;101481.84;5021954;22;20053;-79
2022/02/08 16:46:17;;;;;;;42.92;7.40;;;;;;;6.19;100.00;101520.47;5034498;28;20033;-79
2022/02/08 16:54:23;;;;;;;42.30;7.95;;;;;;;6.15;100.00;101524.31;5033991;28;20041;-79
2022/02/08 16:59:46;;;;;;;40.72;6.13;;;;;;;6.24;100.00;101517.47;4992825;28;20046;-77
2022/02/08 17:02:18;;;;;;;41.30;6.88;;;;;;;6.26;100.00;101521.69;4992184;28;20068;-77
2022/02/08 17:04:44;;;;;;;33.50;6.35;;;;;;;6.24;100.00;101528.94;5008351;28;20687;-77
2022/02/08 17:07:09;;;;;;;30.67;6.27;;;;;;;6.22;100.00;101525.53;5026492;28;20072;-77
2022/02/08 17:12:22;;;;;;;35.17;7.35;;;;;;;6.21;100.00;101534.47;5018786;28;20033;-77
2022/02/08 17:15:10;;;;;;;35.25;6.18;;;;;;;6.19;100.00;101531.09;5040986;28;20034;-77
2022/02/08 17:18:02;;;;;;;28.42;6.53;;;;;;;6.21;100.00;101530.97;5003673;28;20044;-77
2022/02/08 17:47:42;;;;;;;38.80;11.10;;;;;;;6.02;100.00;101564.16;5027978;28;20037;-79
2022/02/08 17:50:14;;;;;;;39.20;8.90;;;;;;;5.95;100.00;101554.09;5009787;28;20416;-79
2022/02/08 17:52:41;;;;;;;42.28;8.75;;;;;;;5.99;100.00;101566.16;5027374;28;20315;-80
2022/02/08 17:55:08;;;;;;;37.72;9.25;;;;;;;5.93;100.00;101568.28;5028656;28;20087;-80
2022/02/08 17:57:34;;;;;;;35.10;7.15;;;;;;;5.92;100.00;101571.91;5046468;28;20033;-80
2022/02/08 18:00:00;;;;;;;40.55;9.15;;;;;;;5.89;100.00;101573.91;5046916;28;20033;-79
2022/02/08 18:02:26;;;;;;;39.75;7.95;;;;;;;5.92;100.00;101593.09;5062565;28;20036;-80
2022/02/08 18:04:53;;;;;;;43.72;9.93;;;;;;;5.92;100.00;101590.47;5023711;28;20116;-78
2022/02/08 18:07:24;;;;;;;50.70;9.32;;;;;;;5.91;100.00;101594.06;5024845;28;20045;-80
2022/02/08 18:09:51;;;;;;;45.35;9.05;;;;;;;5.88;100.00;101594.28;5027072;28;20037;-80
2022/02/08 18:12:18;;;;;;;51.75;9.30;;;;;;;5.85;100.00;101591.00;5025263;28;20060;-79